Time;durP1;ratioP1;P1;durP2;ratioP2;P2;SDS_P1;SDS_P2;PMS_P1;PMS_P2;Temp;Humidity;BMP_temperature;BMP_pressure;BME280_temperature;BME280_humidity;BME280_pressure;Samples;Min_cycle;Max_cycle;Signal;HPM_P1;HPM_P2
2024/03/21 00:00:40;;;;;;;6.13;2.83;;;;;;;11.77;89.07;101295.66;5037111;28;20454;-65
2024/03/21 00:03:05;;;;;;;8.27;3.50;;;;;;;11.70;89.68;101293.31;5036602;28;21045;-66
2024/03/21 00:05:32;;;;;;;6.30;2.63;;;;;;;11.68;89.87;101300.94;5036930;28;20530;-66
2024/03/21 00:07:57;;;;;;;8.47;3.03;;;;;;;11.69;89.87;101293.63;5037021;28;20291;-66
2024/03/21 00:10:24;;;;;;;6.33;3.47;;;;;;;11.69;90.16;101297.16;5036794;28;20850;-66
2024/03/21 00:12:50;;;;;;;8.80;3.23;;;;;;;11.74;90.12;101297.09;5036831;28;20234;-66
2024/03/21 00:15:18;;;;;;;6.63;3.07;;;;;;;11.75;90.21;101287.03;5036351;28;20486;-66
2024/03/21 00:17:45;;;;;;;8.77;4.07;;;;;;;11.75;90.20;101298.69;5036683;28;20482;-66
2024/03/21 00:20:12;;;;;;;6.13;3.00;;;;;;;11.77;89.92;101296.47;5036358;28;20442;-66
2024/03/21 00:22:38;;;;;;;6.33;3.60;;;;;;;11.79;89.78;101294.28;5036543;28;20466;-67
2024/03/21 00:25:06;;;;;;;5.53;3.10;;;;;;;11.81;89.81;101294.78;5036616;28;20441;-67
2024/03/21 00:27:32;;;;;;;6.30;3.63;;;;;;;11.76;89.81;101294.06;5036248;28;20542;-67
2024/03/21 00:29:59;;;;;;;6.77;3.23;;;;;;;11.78;90.16;101292.69;5036488;28;20514;-66
2024/03/21 00:32:26;;;;;;;8.97;4.20;;;;;;;11.79;90.87;101290.78;5036131;28;20490;-66
2024/03/21 00:34:54;;;;;;;9.10;3.53;;;;;;;11.78;91.63;101289.97;5036400;28;20479;-66
2024/03/21 00:37:20;;;;;;;7.83;3.83;;;;;;;11.78;92.18;101289.97;5035978;28;20453;-66
2024/03/21 00:39:48;;;;;;;9.20;3.40;;;;;;;11.77;92.78;101288.34;5036045;28;20472;-66
2024/03/21 00:42:14;;;;;;;8.53;4.37;;;;;;;11.78;93.00;101286.44;5036237;28;20220;-66
2024/03/21 00:44:40;;;;;;;6.53;3.80;;;;;;;11.72;92.33;101298.47;5035821;28;20815;-66
2024/03/21 00:47:06;;;;;;;8.60;4.20;;;;;;;11.69;92.26;101294.44;5036216;28;20208;-66
2024/03/21 00:49:34;;;;;;;6.20;3.60;;;;;;;11.69;92.22;101293.63;5036112;28;20973;-66
2024/03/21 00:52:00;;;;;;;8.30;3.00;;;;;;;11.70;91.39;101293.31;5036032;28;20288;-67
2024/03/21 00:54:26;;;;;;;6.43;3.03;;;;;;;11.67;90.81;101296.63;5036031;28;20919;-67
2024/03/21 00:56:52;;;;;;;8.10;4.00;;;;;;;11.65;91.20;101287.16;5035415;28;20628;-67
2024/03/21 00:59:21;;;;;;;8.40;3.90;;;;;;;11.66;91.75;101288.78;5035803;28;20878;-67
2024/03/21 01:01:46;;;;;;;5.90;3.27;;;;;;;11.62;93.01;101278.50;5035934;28;20266;-67
2024/03/21 01:04:13;;;;;;;7.33;3.40;;;;;;;11.63;93.51;101282.00;5035824;28;20458;-67
2024/03/21 01:06:41;;;;;;;6.93;3.20;;;;;;;11.58;94.30;101277.47;5035862;28;20204;-67
2024/03/21 01:09:09;;;;;;;9.20;3.83;;;;;;;11.57;95.17;101280.47;5035453;28;20509;-67
2024/03/21 01:11:34;;;;;;;11.30;3.67;;;;;;;11.56;95.88;101273.44;5035305;28;20931;-67
2024/03/21 01:14:01;;;;;;;8.40;4.60;;;;;;;11.57;96.48;101275.84;5035209;28;20498;-67
2024/03/21 01:16:28;;;;;;;9.90;4.33;;;;;;;11.55;96.85;101271.78;5035903;28;20303;-67
2024/03/21 01:18:55;;;;;;;5.90;3.20;;;;;;;11.56;97.30;101265.28;5035691;28;21005;-67
2024/03/21 01:21:20;;;;;;;5.97;3.33;;;;;;;11.54;97.75;101264.75;5035500;28;20522;-67
2024/03/21 01:23:48;;;;;;;4.73;2.90;;;;;;;11.52;97.96;101261.53;5035384;28;20542;-67
2024/03/21 01:26:14;;;;;;;6.50;3.10;;;;;;;11.53;98.47;101263.16;5058158;22;20306;-65
2024/03/21 01:28:41;;;;;;;5.87;3.10;;;;;;;11.49;98.62;101257.50;5055154;28;20446;-65
2024/03/21 01:31:14;;;;;;;9.33;4.03;;;;;;;11.47;98.61;101259.69;5055123;28;20210;-65
2024/03/21 01:33:41;;;;;;;9.50;4.00;;;;;;;11.45;98.94;101263.78;5054904;28;20486;-65
2024/03/21 01:36:07;;;;;;;8.47;3.63;;;;;;;11.43;99.20;101255.94;5054967;28;20441;-65
2024/03/21 01:38:33;;;;;;;7.57;3.83;;;;;;;11.45;98.97;101252.94;5054997;28;20533;-65
2024/03/21 01:41:02;;;;;;;6.67;3.40;;;;;;;11.47;99.35;101253.47;5054717;28;20698;-65
2024/03/21 01:43:29;;;;;;;8.63;4.33;;;;;;;11.48;99.77;101245.03;5054528;28;20541;-65
2024/03/21 01:46:17;;;;;;;6.37;3.27;;;;;;;11.50;99.89;101252.88;5054854;28;20441;-65
2024/03/21 01:48:45;;;;;;;9.63;3.73;;;;;;;11.50;99.86;101242.81;5054968;28;20427;-66
2024/03/21 01:51:12;;;;;;;6.10;3.30;;;;;;;11.52;100.00;101240.66;5054787;28;20427;-64
2024/03/21 01:53:41;;;;;;;6.10;2.60;;;;;;;11.47;99.76;101242.63;5054367;28;20481;-64
2024/03/21 01:56:09;;;;;;;7.03;3.90;;;;;;;11.42;99.36;101235.34;5054383;28;20438;-64
2024/03/21 01:58:35;;;;;;;5.43;3.53;;;;;;;11.37;98.90;101225.34;5054660;28;20458;-64
2024/03/21 02:01:24;;;;;;;10.97;4.10;;;;;;;11.35;99.05;101229.47;5054268;28;20879;-64
2024/03/21 02:03:52;;;;;;;5.60;2.97;;;;;;;11.32;98.99;101228.13;5054209;28;20458;-64
2024/03/21 02:06:18;;;;;;;7.93;4.53;;;;;;;11.30;99.49;101226.81;5054518;28;20500;-64
2024/03/21 02:08:45;;;;;;;7.87;3.80;;;;;;;11.25;99.37;101227.69;5053560;28;20453;-64
2024/03/21 02:11:12;;;;;;;8.17;4.57;;;;;;;11.23;99.71;101219.03;5054766;28;20465;-64
2024/03/21 02:13:39;;;;;;;6.60;3.93;;;;;;;11.22;100.00;101214.69;5054322;28;20497;-64
2024/03/21 02:16:05;;;;;;;7.17;4.30;;;;;;;11.19;100.00;101209.84;5054623;28;20446;-64
2024/03/21 02:18:31;;;;;;;8.37;3.53;;;;;;;11.17;100.00;101211.25;5053939;28;20997;-64
2024/03/21 02:20:57;;;;;;;8.83;4.60;;;;;;;11.17;100.00;101208.53;5054252;28;20243;-64
2024/03/21 02:23:25;;;;;;;5.60;3.73;;;;;;;11.17;100.00;101201.22;5053842;28;20521;-64
2024/03/21 02:25:51;;;;;;;6.20;3.83;;;;;;;11.15;100.00;101197.97;5054001;28;20310;-64
2024/03/21 02:28:17;;;;;;;6.73;3.60;;;;;;;11.16;100.00;101199.59;5053926;28;20966;-64
2024/03/21 02:30:46;;;;;;;6.40;3.30;;;;;;;11.11;100.00;101199.63;5053786;28;20762;-62
2024/03/21 02:33:13;;;;;;;12.53;4.50;;;;;;;11.13;100.00;101199.38;5053613;28;20994;-61
2024/03/21 02:35:38;;;;;;;10.47;5.10;;;;;;;11.15;100.00;101202.59;5053781;28;20482;-63
2024/03/21 02:38:05;;;;;;;8.57;4.17;;;;;;;11.17;100.00;101200.41;5053586;28;20956;-62
2024/03/21 02:40:32;;;;;;;9.07;4.17;;;;;;;11.17;100.00;101200.41;5053865;28;20204;-62
2024/03/21 02:42:59;;;;;;;11.13;4.67;;;;;;;11.18;100.00;101196.59;5053470;28;21036;-62
2024/03/21 02:45:24;;;;;;;8.07;4.47;;;;;;;11.17;100.00;101201.22;5053803;28;20806;-62
2024/03/21 02:47:51;;;;;;;10.33;4.30;;;;;;;11.17;100.00;101203.13;5053492;28;20537;-62
2024/03/21 02:50:17;;;;;;;5.67;3.47;;;;;;;11.15;100.00;101208.81;5053687;28;20290;-62
2024/03/21 02:52:43;;;;;;;10.70;4.70;;;;;;;11.13;100.00;101210.22;5054021;28;20901;-62
2024/03/21 02:55:09;;;;;;;10.17;4.23;;;;;;;11.11;100.00;101207.78;5053568;28;20227;-62
2024/03/21 02:57:37;;;;;;;7.37;4.40;;;;;;;11.11;100.00;101216.75;5053582;28;20876;-62
2024/03/21 03:00:04;;;;;;;5.23;3.23;;;;;;;11.09;100.00;101208.06;5053620;28;20612;-62
2024/03/21 03:02:30;;;;;;;9.73;4.07;;;;;;;11.10;100.00;101206.16;5053561;28;20462;-62
2024/03/21 03:04:56;;;;;;;15.43;4.00;;;;;;;11.06;100.00;101207.84;5053253;28;20529;-62
2024/03/21 03:07:23;;;;;;;6.00;3.20;;;;;;;11.03;100.00;101211.94;5053493;28;20514;-62
2024/03/21 03:09:48;;;;;;;6.97;3.77;;;;;;;11.02;100.00;101204.09;5053473;28;20208;-62
2024/03/21 03:12:15;;;;;;;7.60;3.57;;;;;;;10.98;100.00;101203.03;5053367;28;20831;-62
2024/03/21 03:14:42;;;;;;;6.80;2.43;;;;;;;10.96;100.00;101194.41;5053031;28;20224;-62
2024/03/21 03:17:08;;;;;;;6.07;3.20;;;;;;;10.96;100.00;101194.41;5053170;28;20985;-62
2024/03/21 03:19:34;;;;;;;10.80;4.60;;;;;;;10.93;100.00;101193.06;5052727;28;20941;-64
2024/03/21 03:22:00;;;;;;;8.10;3.90;;;;;;;10.93;100.00;101200.41;5053369;28;20533;-63
2024/03/21 03:24:26;;;;;;;8.17;4.70;;;;;;;10.93;100.00;101200.41;5053320;28;20299;-63
2024/03/21 03:26:52;;;;;;;12.20;4.13;;;;;;;10.92;100.00;101201.50;5053063;28;21029;-63
2024/03/21 03:29:18;;;;;;;8.47;4.40;;;;;;;10.88;100.00;101195.84;5053249;28;20208;-63
2024/03/21 03:31:46;;;;;;;6.77;3.33;;;;;;;10.90;100.00;101195.56;5053253;28;20518;-63
2024/03/21 03:36:57;;;;;;;10.07;4.13;;;;;;;10.91;100.00;101202.59;5053148;28;20409;-63
2024/03/21 03:39:24;;;;;;;10.53;5.07;;;;;;;10.89;100.00;101192.06;5053177;28;20465;-63
2024/03/21 03:41:51;;;;;;;6.50;3.83;;;;;;;10.88;100.00;101193.13;5053430;28;20441;-63
2024/03/21 03:44:17;;;;;;;8.93;3.90;;;;;;;10.85;100.00;101194.53;5053323;28;20529;-63
2024/03/21 03:46:44;;;;;;;12.60;4.00;;;;;;;10.86;100.00;101189.91;5053155;28;20445;-63
2024/03/21 03:49:11;;;;;;;8.90;3.60;;;;;;;10.88;100.00;101186.91;5053136;28;20442;-63
2024/03/21 03:51:37;;;;;;;11.40;4.83;;;;;;;10.85;100.00;101189.09;5053023;28;20444;-64
2024/03/21 03:54:03;;;;;;;8.90;4.37;;;;;;;10.86;100.00;101195.31;5052930;28;20549;-63
2024/03/21 03:56:29;;;;;;;13.67;4.87;;;;;;;10.90;100.00;101198.28;5052745;28;20705;-63
2024/03/21 03:58:56;;;;;;;11.17;4.27;;;;;;;10.90;100.00;101192.84;5052735;28;20434;-62
2024/03/21 04:01:21;;;;;;;10.77;4.53;;;;;;;10.91;100.00;101199.88;5052950;28;20287;-63
2024/03/21 04:03:49;;;;;;;9.27;4.50;;;;;;;10.94;100.00;101193.91;5052919;28;20836;-63
2024/03/21 04:06:15;;;;;;;8.83;4.30;;;;;;;10.92;100.00;101190.66;5052922;28;20289;-62
2024/03/21 04:08:42;;;;;;;10.83;4.03;;;;;;;10.89;100.00;101188.50;5052906;28;20528;-63
2024/03/21 04:11:13;;;;;;;11.87;5.03;;;;;;;10.85;100.00;101191.81;5053208;28;20838;-63
2024/03/21 04:13:40;;;;;;;6.90;3.37;;;;;;;10.83;100.00;101185.84;5052557;28;20512;-63
2024/03/21 04:16:12;;;;;;;10.73;4.40;;;;;;;10.79;100.00;101182.09;5052735;28;20490;-63
2024/03/21 04:18:39;;;;;;;10.97;4.33;;;;;;;10.77;100.00;101187.03;5052819;28;20434;-63
2024/03/21 04:21:06;;;;;;;12.13;5.00;;;;;;;10.74;100.00;101184.06;5052754;28;20533;-63
2024/03/21 04:23:32;;;;;;;7.90;3.97;;;;;;;10.70;100.00;101189.25;5052367;28;20882;-63
2024/03/21 04:25:58;;;;;;;13.83;5.00;;;;;;;10.70;100.00;101183.03;5052489;28;20488;-63
2024/03/21 04:28:24;;;;;;;16.17;5.23;;;;;;;10.68;100.00;101186.03;5052716;28;20474;-63
2024/03/21 04:30:50;;;;;;;10.83;5.10;;;;;;;10.66;100.00;101188.22;5052431;28;20247;-63
2024/03/21 04:33:17;;;;;;;11.10;4.20;;;;;;;10.63;100.00;101188.81;5056091;28;20474;-63
2024/03/21 04:35:42;;;;;;;16.33;5.40;;;;;;;10.60;100.00;101183.94;5056191;28;20594;-63
2024/03/21 04:38:10;;;;;;;9.53;5.00;;;;;;;10.58;100.00;101181.53;5056188;28;20439;-62
2024/03/21 04:40:37;;;;;;;11.03;4.93;;;;;;;10.63;100.00;101179.88;5056565;28;20717;-62
2024/03/21 04:43:04;;;;;;;8.90;4.37;;;;;;;10.65;100.00;101177.66;5055995;28;20515;-62
2024/03/21 04:45:31;;;;;;;9.27;4.03;;;;;;;10.64;100.00;101178.78;5056087;28;20462;-63
2024/03/21 04:47:57;;;;;;;10.63;4.80;;;;;;;10.64;100.00;101182.28;5056132;28;20877;-63
2024/03/21 04:50:23;;;;;;;7.70;4.13;;;;;;;10.61;100.00;101182.84;5055859;28;20446;-63
2024/03/21 04:52:50;;;;;;;11.07;4.50;;;;;;;10.60;100.00;101175.81;5055777;28;20516;-63
2024/03/21 04:55:17;;;;;;;7.70;3.60;;;;;;;10.64;100.00;101174.16;5055790;28;20568;-63
2024/03/21 04:57:46;;;;;;;12.47;4.77;;;;;;;10.65;100.00;101174.97;5055783;28;20485;-62
2024/03/21 05:00:13;;;;;;;9.37;5.17;;;;;;;10.62;100.00;101173.63;5056128;28;20448;-64
2024/03/21 05:02:39;;;;;;;7.20;4.60;;;;;;;10.64;100.00;101166.03;5055659;28;20470;-63
2024/03/21 05:05:05;;;;;;;12.53;4.60;;;;;;;10.64;100.00;101163.31;5055650;28;20445;-64
2024/03/21 05:07:32;;;;;;;9.30;4.50;;;;;;;10.67;100.00;101162.75;5055259;28;20939;-63
2024/03/21 05:09:58;;;;;;;7.70;4.10;;;;;;;10.68;100.00;101160.84;5055508;28;20477;-63
2024/03/21 05:12:27;;;;;;;8.37;4.47;;;;;;;10.66;100.00;101163.03;5055462;28;20493;-63
2024/03/21 05:14:52;;;;;;;7.13;3.80;;;;;;;10.66;100.00;101157.59;5055135;28;20270;-63
2024/03/21 05:17:20;;;;;;;14.03;4.43;;;;;;;10.65;100.00;101154.09;5055122;28;20470;-64
2024/03/21 05:19:46;;;;;;;8.37;4.53;;;;;;;10.67;100.00;101154.63;5055576;28;20200;-64
2024/03/21 05:22:12;;;;;;;9.80;5.03;;;;;;;10.66;100.00;101144.84;5055255;28;20543;-64
2024/03/21 05:24:38;;;;;;;7.07;4.37;;;;;;;10.61;100.00;101155.75;5055268;28;20857;-64
2024/03/21 05:27:06;;;;;;;7.37;4.37;;;;;;;10.60;100.00;101152.25;5054835;28;20541;-63
2024/03/21 05:29:33;;;;;;;9.07;3.97;;;;;;;10.57;100.00;101154.72;5055528;28;20203;-63
2024/03/21 05:31:59;;;;;;;11.13;4.13;;;;;;;10.58;100.00;101154.44;5054841;28;20946;-63
2024/03/21 05:34:25;;;;;;;10.50;4.90;;;;;;;10.62;100.00;101157.34;5054969;28;20434;-63
2024/03/21 05:36:52;;;;;;;9.93;5.57;;;;;;;10.65;100.00;101166.84;5055134;28;20529;-63
2024/03/21 05:39:19;;;;;;;8.03;4.30;;;;;;;10.67;100.00;101164.63;5054850;28;20299;-63
2024/03/21 05:41:45;;;;;;;11.37;5.43;;;;;;;10.67;100.00;101159.22;5054730;28;20449;-63
2024/03/21 05:44:11;;;;;;;9.90;4.63;;;;;;;10.71;100.00;101161.06;5054752;28;20502;-63
2024/03/21 05:46:39;;;;;;;8.13;4.80;;;;;;;10.74;100.00;101163.19;5054922;28;20462;-63
2024/03/21 05:49:04;;;;;;;12.60;5.00;;;;;;;10.78;100.00;101158.81;5054507;28;20291;-63
2024/03/21 05:51:31;;;;;;;9.17;4.17;;;;;;;10.83;100.00;101161.47;5054443;28;20537;-64
2024/03/21 05:53:57;;;;;;;14.10;5.07;;;;;;;10.90;100.00;101158.44;5054790;28;20297;-63
2024/03/21 05:56:23;;;;;;;11.40;4.90;;;;;;;10.94;100.00;101159.47;5054738;28;20989;-64
2024/03/21 05:58:49;;;;;;;11.80;5.10;;;;;;;10.96;100.00;101157.25;5054624;28;20239;-63
2024/03/21 06:01:23;;;;;;;11.70;4.80;;;;;;;11.01;100.00;101159.91;5054494;28;20858;-63
2024/03/21 06:03:50;;;;;;;12.97;4.87;;;;;;;11.07;100.00;101160.69;5054246;28;20228;-63
2024/03/21 06:06:18;;;;;;;14.10;5.10;;;;;;;11.13;100.00;101151.38;5054243;28;20953;-63
2024/03/21 06:08:43;;;;;;;10.83;4.40;;;;;;;11.16;100.00;101155.41;5054373;28;20470;-63
2024/03/21 06:11:10;;;;;;;10.63;5.63;;;;;;;11.18;100.00;101143.16;5054391;28;20914;-63
2024/03/21 06:13:36;;;;;;;16.97;6.63;;;;;;;11.23;100.00;101150.44;5054157;28;20501;-63
2024/03/21 06:16:03;;;;;;;13.03;4.90;;;;;;;11.25;100.00;101148.25;5054242;28;20510;-63
2024/03/21 06:18:28;;;;;;;10.80;5.80;;;;;;;11.24;100.00;101149.31;5054242;28;20240;-63
2024/03/21 06:20:56;;;;;;;15.07;5.23;;;;;;;11.23;100.00;101148.50;5053856;28;20544;-64
2024/03/21 06:23:22;;;;;;;11.03;4.27;;;;;;;11.23;100.00;101145.81;5054049;28;20670;-64
2024/03/21 06:25:49;;;;;;;8.43;4.17;;;;;;;11.27;100.00;101149.53;5054087;28;20822;-63
2024/03/21 06:28:14;;;;;;;12.00;5.33;;;;;;;11.26;100.00;101161.50;5054257;28;20207;-63
2024/03/21 06:30:41;;;;;;;14.60;5.50;;;;;;;11.23;100.00;101166.69;5054213;28;20537;-63
2024/03/21 06:33:06;;;;;;;12.97;5.50;;;;;;;11.22;100.00;101181.34;5054144;28;20306;-63
2024/03/21 06:35:33;;;;;;;7.63;4.40;;;;;;;11.16;100.00;101183.34;5053574;28;21085;-63
2024/03/21 06:38:00;;;;;;;10.00;5.00;;;;;;;11.10;100.00;101196.13;5053582;28;20214;-63
2024/03/21 06:40:27;;;;;;;12.17;4.50;;;;;;;11.06;100.00;101197.78;5053407;28;20930;-63
2024/03/21 06:42:53;;;;;;;11.00;5.90;;;;;;;10.99;100.00;101212.81;5053380;28;20894;-63
2024/03/21 06:45:21;;;;;;;12.20;5.63;;;;;;;10.97;100.00;101217.69;5053756;28;20533;-63
2024/03/21 06:47:48;;;;;;;9.97;4.93;;;;;;;10.95;100.00;101217.19;5053772;28;20446;-63
2024/03/21 06:50:16;;;;;;;8.57;4.70;;;;;;;10.83;100.00;101223.81;5053454;28;20468;-63
2024/03/21 06:52:44;;;;;;;11.30;5.07;;;;;;;10.66;100.00;101242.41;5053605;28;20459;-63
2024/03/21 06:55:12;;;;;;;10.83;5.10;;;;;;;10.56;100.00;101237.06;5053038;28;20482;-63
2024/03/21 06:57:40;;;;;;;13.23;4.63;;;;;;;10.48;100.00;101246.63;5053668;28;20481;-63
2024/03/21 07:00:10;;;;;;;11.23;5.07;;;;;;;10.48;100.00;101245.81;5053584;28;20446;-63
2024/03/21 07:02:36;;;;;;;11.10;4.67;;;;;;;10.41;100.00;101250.75;5053148;28;21017;-64
2024/03/21 07:05:03;;;;;;;8.13;4.80;;;;;;;10.42;100.00;101246.97;5053738;28;20469;-63
2024/03/21 07:07:28;;;;;;;12.67;5.23;;;;;;;10.46;100.00;101246.09;5053832;28;20294;-63
2024/03/21 07:09:55;;;;;;;10.10;4.10;;;;;;;10.52;100.00;101246.84;5053433;28;20540;-63
2024/03/21 07:12:22;;;;;;;9.70;4.90;;;;;;;10.56;100.00;101250.63;5053054;28;20228;-63
2024/03/21 07:14:48;;;;;;;9.07;4.80;;;;;;;10.60;100.00;101247.06;5053090;28;20929;-63
2024/03/21 07:17:14;;;;;;;14.37;4.80;;;;;;;10.64;100.00;101251.91;5053426;28;20464;-64
2024/03/21 07:19:44;;;;;;;8.93;5.00;;;;;;;10.66;100.00;101261.34;5053056;28;21016;-63
2024/03/21 07:22:10;;;;;;;10.10;4.83;;;;;;;10.63;100.00;101267.38;5053351;28;20227;-63
2024/03/21 07:24:36;;;;;;;8.47;4.33;;;;;;;10.54;100.00;101266.38;5053335;28;20537;-63
2024/03/21 07:27:03;;;;;;;10.57;4.40;;;;;;;10.57;100.00;101279.31;5067458;22;20520;-66
2024/03/21 07:29:31;;;;;;;13.57;4.33;;;;;;;10.55;100.00;101278.81;5053453;28;20445;-66
2024/03/21 07:31:56;;;;;;;12.33;5.90;;;;;;;10.45;100.00;101287.03;5053374;28;20529;-66
2024/03/21 07:34:23;;;;;;;10.07;4.73;;;;;;;10.40;100.00;101289.75;5053394;28;20545;-67
2024/03/21 07:36:50;;;;;;;8.67;3.97;;;;;;;10.42;100.00;101306.53;5052996;28;20695;-66
2024/03/21 07:39:19;;;;;;;10.07;5.03;;;;;;;10.39;100.00;101315.22;5051936;28;20449;-66
2024/03/21 07:41:44;;;;;;;6.87;3.73;;;;;;;10.32;100.00;101313.63;5053662;28;20540;-66
2024/03/21 07:44:11;;;;;;;12.03;5.17;;;;;;;10.29;100.00;101316.09;5053134;28;20568;-65
2024/03/21 07:46:38;;;;;;;8.70;3.63;;;;;;;10.24;100.00;101318.81;5053394;28;20282;-65
2024/03/21 07:49:07;;;;;;;11.90;5.70;;;;;;;10.18;100.00;101317.22;5053492;28;20470;-66
2024/03/21 07:51:32;;;;;;;11.47;4.40;;;;;;;10.14;100.00;101319.69;5052891;28;20538;-67
2024/03/21 07:53:59;;;;;;;10.37;4.97;;;;;;;10.14;100.00;101313.44;5053353;28;20552;-66
2024/03/21 07:56:25;;;;;;;7.47;3.60;;;;;;;10.17;100.00;101318.31;5053089;28;20270;-66
2024/03/21 07:58:52;;;;;;;14.33;5.70;;;;;;;10.15;100.00;101317.78;5053277;28;20956;-67
2024/03/21 08:01:18;;;;;;;254.33;39.77;;;;;;;10.19;100.00;101325.06;5053206;28;20195;-66
2024/03/21 08:03:46;;;;;;;8.20;4.33;;;;;;;10.25;100.00;101313.13;5053070;28;20828;-67
2024/03/21 08:06:12;;;;;;;14.63;4.53;;;;;;;10.18;100.00;101318.03;5053678;28;20203;-66
2024/03/21 08:08:39;;;;;;;211.03;25.53;;;;;;;10.18;100.00;101320.75;5056807;28;20530;-66
2024/03/21 08:11:04;;;;;;;97.47;34.73;;;;;;;10.16;100.00;101312.09;5056620;28;20628;-66
2024/03/21 08:13:31;;;;;;;7.77;3.27;;;;;;;10.21;100.00;101309.34;5056792;28;20498;-66
2024/03/21 08:15:56;;;;;;;5.60;2.30;;;;;;;10.24;100.00;101308.81;5056801;28;20253;-67
2024/03/21 08:18:23;;;;;;;12.40;5.90;;;;;;;10.28;100.00;101304.47;5056715;28;20854;-67
2024/03/21 08:20:51;;;;;;;13.13;5.90;;;;;;;10.32;100.00;101315.53;5056789;28;20608;-67
2024/03/21 08:23:18;;;;;;;14.03;7.40;;;;;;;10.30;100.00;101307.69;5056630;28;20465;-67
2024/03/21 08:25:44;;;;;;;16.50;5.50;;;;;;;10.34;100.00;101324.19;5056662;28;20446;-67
2024/03/21 08:28:11;;;;;;;9.63;5.80;;;;;;;10.34;100.00;101325.00;5056704;28;20916;-67
2024/03/21 08:30:43;;;;;;;12.77;5.53;;;;;;;10.33;100.00;101326.09;5057043;28;20294;-66
2024/03/21 08:33:10;;;;;;;11.47;5.20;;;;;;;10.36;100.00;101332.84;5056165;28;20473;-66
2024/03/21 08:35:35;;;;;;;13.90;5.77;;;;;;;10.38;100.00;101332.56;5056228;28;20569;-67
2024/03/21 08:38:04;;;;;;;11.20;6.30;;;;;;;10.35;100.00;101315.75;5056416;28;20525;-69
2024/03/21 08:40:31;;;;;;;9.73;5.27;;;;;;;10.37;100.00;101312.81;5056151;28;20298;-67
2024/03/21 08:42:58;;;;;;;11.53;5.60;;;;;;;10.42;100.00;101320.06;5056022;28;20462;-67
2024/03/21 08:45:23;;;;;;;10.70;5.43;;;;;;;10.46;100.00;101307.59;5056301;28;20465;-66
2024/03/21 08:47:50;;;;;;;9.23;5.10;;;;;;;10.52;100.00;101304.53;5056537;28;20883;-66
2024/03/21 08:50:16;;;;;;;8.97;5.80;;;;;;;10.56;100.00;101305.59;5056020;28;20299;-67
2024/03/21 08:52:43;;;;;;;12.97;5.97;;;;;;;10.57;100.00;101323.47;5056011;28;20537;-67
2024/03/21 08:55:10;;;;;;;18.27;8.37;;;;;;;10.55;100.00;101322.94;5056044;28;20521;-67
2024/03/21 08:57:37;;;;;;;20.10;6.87;;;;;;;10.55;100.00;101314.81;5056092;28;20434;-67
2024/03/21 09:00:03;;;;;;;11.00;5.33;;;;;;;10.58;100.00;101313.44;5055995;28;20795;-67
2024/03/21 09:02:30;;;;;;;171.93;26.87;;;;;;;10.59;100.00;101315.06;5056151;28;21041;-67
2024/03/21 09:04:55;;;;;;;13.97;6.47;;;;;;;10.58;100.00;101308.84;5055950;28;20525;-67
2024/03/21 09:07:22;;;;;;;381.30;37.97;;;;;;;10.63;100.00;101305.28;5055805;28;20538;-67
2024/03/21 09:09:48;;;;;;;1999.90;999.90;;;;;;;10.64;100.00;101304.19;5055771;28;20204;-67
2024/03/21 09:12:17;;;;;;;145.80;22.00;;;;;;;10.69;100.00;101300.63;5055646;28;20478;-67
2024/03/21 09:14:42;;;;;;;1999.90;999.90;;;;;;;10.72;100.00;101303.59;5055536;28;20211;-67
2024/03/21 09:17:09;;;;;;;13.13;6.80;;;;;;;10.73;100.00;101288.13;5054964;28;20489;-67
2024/03/21 09:19:34;;;;;;;21.73;6.43;;;;;;;10.75;100.00;101294.88;5055485;28;20243;-67
2024/03/21 09:22:01;;;;;;;37.50;21.10;;;;;;;10.80;100.00;101296.72;5055635;28;20482;-67
2024/03/21 09:24:30;;;;;;;22.17;7.47;;;;;;;10.84;100.00;101300.50;5055380;28;20734;-67
2024/03/21 09:26:57;;;;;;;17.97;8.20;;;;;;;10.94;100.00;101278.72;5055558;28;20458;-67
2024/03/21 09:29:24;;;;;;;12.50;7.37;;;;;;;10.99;100.00;101275.97;5055553;28;20877;-67
2024/03/21 09:31:50;;;;;;;18.20;6.03;;;;;;;11.06;100.00;101264.75;5055360;28;20529;-67
2024/03/21 09:34:16;;;;;;;1999.90;999.90;;;;;;;11.15;100.00;101268.47;5055374;28;20941;-67
2024/03/21 09:36:46;;;;;;;1999.90;999.90;;;;;;;11.24;100.00;101266.72;5055203;28;20473;-67
2024/03/21 09:39:12;;;;;;;9.40;4.67;;;;;;;11.39;100.00;101262.25;5055008;28;20299;-67
2024/03/21 09:41:38;;;;;;;14.93;6.90;;;;;;;11.50;100.00;101253.69;5055278;28;20538;-67
2024/03/21 09:44:04;;;;;;;215.47;131.10;;;;;;;11.59;100.00;101242.97;5054833;28;20597;-67
2024/03/21 09:46:38;;;;;;;15.27;6.07;;;;;;;11.66;100.00;101238.03;5055092;28;20442;-67
2024/03/21 09:49:04;;;;;;;10.57;6.13;;;;;;;11.62;100.00;101234.28;5055280;28;20241;-67
2024/03/21 09:51:31;;;;;;;107.53;35.77;;;;;;;11.66;100.00;101229.06;5055016;28;20450;-67
2024/03/21 09:53:57;;;;;;;1999.90;999.90;;;;;;;11.69;100.00;101229.31;5055000;28;20227;-67
2024/03/21 09:56:24;;;;;;;11.50;5.90;;;;;;;11.72;100.00;101228.69;5055015;28;20593;-67
2024/03/21 09:58:50;;;;;;;9.73;5.03;;;;;;;11.77;100.00;101235.97;5054967;28;20206;-67
2024/03/21 10:01:21;;;;;;;9.13;5.13;;;;;;;11.84;100.00;101233.72;5054931;28;20446;-67
2024/03/21 10:03:52;;;;;;;9.03;4.90;;;;;;;11.95;100.00;101231.66;5054495;28;20714;-67
2024/03/21 10:06:19;;;;;;;12.03;4.33;;;;;;;11.96;100.00;101230.59;5054441;28;20952;-67
2024/03/21 10:08:44;;;;;;;9.20;4.40;;;;;;;12.02;100.00;101237.53;5054918;28;20469;-67
2024/03/21 10:11:11;;;;;;;7.97;3.97;;;;;;;12.06;100.00;101244.00;5054373;28;20954;-67
2024/03/21 10:13:37;;;;;;;8.23;4.33;;;;;;;12.11;100.00;101241.19;5054254;28;20254;-67
2024/03/21 10:16:04;;;;;;;6.90;3.30;;;;;;;12.15;100.00;101225.94;5054464;28;20506;-67
2024/03/21 10:18:30;;;;;;;8.20;3.80;;;;;;;12.19;100.00;101229.69;5054321;28;20267;-67
2024/03/21 10:20:59;;;;;;;7.33;3.40;;;;;;;12.24;100.00;101234.22;5054533;28;20471;-67
2024/03/21 10:23:24;;;;;;;9.63;2.70;;;;;;;12.27;100.00;101228.19;5054770;28;20224;-66
2024/03/21 10:25:51;;;;;;;7.57;3.00;;;;;;;12.29;100.00;101232.22;5054242;28;20839;-67
2024/03/21 10:28:17;;;;;;;8.13;3.50;;;;;;;12.21;100.00;101229.38;5054307;28;20215;-67
2024/03/21 10:30:44;;;;;;;6.00;2.80;;;;;;;12.26;100.00;101232.84;5053673;28;20448;-67
2024/03/21 10:33:15;;;;;;;4.13;2.53;;;;;;;12.41;100.00;101237.19;5054168;28;20465;-67
2024/03/21 10:35:42;;;;;;;6.27;3.17;;;;;;;12.54;100.00;101233.72;5054008;28;20516;-67
2024/03/21 10:38:13;;;;;;;5.63;2.80;;;;;;;12.65;100.00;101239.78;5054006;28;20426;-67
2024/03/21 10:40:47;;;;;;;6.60;3.13;;;;;;;12.74;100.00;101232.53;5054186;28;20426;-66
2024/03/21 10:43:15;;;;;;;6.20;3.23;;;;;;;12.81;100.00;101248.47;5053931;28;20545;-67
2024/03/21 10:45:43;;;;;;;13.17;4.17;;;;;;;12.89;100.00;101247.78;5054001;28;20442;-67
2024/03/21 10:48:25;;;;;;;6.20;3.50;;;;;;;13.06;100.00;101253.44;5053961;28;20448;-67
2024/03/21 10:50:51;;;;;;;7.67;3.67;;;;;;;13.27;100.00;101261.22;5053976;28;20427;-67
2024/03/21 10:53:20;;;;;;;6.70;3.50;;;;;;;13.41;100.00;101274.81;5053889;28;20454;-66
2024/03/21 10:55:49;;;;;;;9.10;4.23;;;;;;;13.57;100.00;101268.78;5053960;28;20565;-67
2024/03/21 10:58:15;;;;;;;7.10;3.10;;;;;;;13.73;100.00;101279.34;5053710;28;20481;-67
2024/03/21 11:00:50;;;;;;;7.10;2.23;;;;;;;13.88;100.00;101287.97;5053794;28;20503;-67
2024/03/21 11:03:16;;;;;;;6.10;3.20;;;;;;;14.05;100.00;101300.97;5053652;28;20851;-66
2024/03/21 11:05:43;;;;;;;8.03;3.73;;;;;;;14.05;100.00;101297.44;5053543;28;20438;-66
2024/03/21 11:08:25;;;;;;;5.83;3.13;;;;;;;14.16;100.00;101300.72;5053616;28;20350;-66
2024/03/21 11:10:52;;;;;;;9.23;3.50;;;;;;;14.23;100.00;101304.66;5053578;28;20426;-66
2024/03/21 11:13:18;;;;;;;5.87;3.40;;;;;;;14.30;100.00;101310.50;5053503;28;20469;-66
2024/03/21 11:15:45;;;;;;;8.10;3.27;;;;;;;14.45;100.00;101311.25;5053365;28;20490;-66